Time;durP1;ratioP1;P1;durP2;ratioP2;P2;SDS_P1;SDS_P2;PMS_P1;PMS_P2;Temp;Humidity;BMP_temperature;BMP_pressure;BME280_temperature;BME280_humidity;BME280_pressure;Samples;Min_cycle;Max_cycle;Signal;HPM_P1;HPM_P2
2022/12/01 00:01:25;;;;;;;17.65;7.63;;;3.40;99.90;;;;;;4748729;30;20048;-76
2022/12/01 00:03:53;;;;;;;19.08;7.60;;;3.40;99.90;;;;;;4750356;30;20433;-76
2022/12/01 00:06:21;;;;;;;17.08;6.97;;;4.40;99.90;;;;;;4721275;30;20076;-76
2022/12/01 00:11:41;;;;;;;17.85;6.05;;;3.40;99.90;;;;;;4745445;30;20132;-76
2022/12/01 00:14:08;;;;;;;15.20;6.35;;;3.40;99.90;;;;;;4748008;30;20047;-76
2022/12/01 00:16:36;;;;;;;18.25;7.03;;;3.30;99.90;;;;;;4747761;30;20517;-76
2022/12/01 00:19:03;;;;;;;20.08;7.93;;;4.30;99.90;;;;;;4733549;30;20055;-76
2022/12/01 00:21:31;;;;;;;16.05;6.50;;;5.00;99.90;;;;;;4731877;30;20048;-76
2022/12/01 00:23:58;;;;;;;17.30;6.78;;;4.30;99.90;;;;;;4748636;30;20059;-76
2022/12/01 00:26:26;;;;;;;14.18;5.22;;;3.20;99.90;;;;;;4748114;30;20056;-76
2022/12/01 00:28:56;;;;;;;17.40;6.32;;;2.50;99.90;;;;;;4735597;30;20063;-76
2022/12/01 00:31:24;;;;;;;18.75;6.90;;;3.20;99.90;;;;;;4731176;30;20051;-76
2022/12/01 00:33:52;;;;;;;17.15;7.00;;;3.00;99.90;;;;;;4743719;30;20944;-76
2022/12/01 00:36:23;;;;;;;19.13;7.30;;;3.70;99.90;;;;;;4745747;30;20045;-76
2022/12/01 00:38:53;;;;;;;15.52;5.90;;;3.10;99.90;;;;;;4737614;30;20053;-76
2022/12/01 00:41:24;;;;;;;18.52;6.18;;;3.10;99.90;;;;;;4732563;30;20161;-76
2022/12/01 00:43:52;;;;;;;16.85;6.68;;;3.10;99.90;;;;;;4745962;30;20056;-76
2022/12/01 00:46:20;;;;;;;19.33;7.20;;;3.00;99.90;;;;;;4732369;30;20108;-76
2022/12/01 00:48:48;;;;;;;24.35;8.00;;;3.00;99.90;;;;;;4732010;30;20044;-76
2022/12/01 00:51:15;;;;;;;24.83;10.38;;;3.10;99.90;;;;;;4728285;30;20062;-76
2022/12/01 00:53:43;;;;;;;27.23;9.38;;;2.80;99.90;;;;;;4717073;30;20071;-76
2022/12/01 00:56:10;;;;;;;21.40;7.90;;;2.00;99.90;;;;;;4727637;30;20114;-76
2022/12/01 00:58:38;;;;;;;23.27;8.45;;;2.90;99.90;;;;;;4717485;30;20052;-76
2022/12/01 01:01:06;;;;;;;26.50;8.50;;;3.30;99.90;;;;;;4736864;30;20163;-76
2022/12/01 01:03:34;;;;;;;20.08;7.70;;;2.20;99.90;;;;;;4731492;30;20052;-76
2022/12/01 01:06:10;;;;;;;20.60;7.95;;;2.60;99.90;;;;;;4729937;30;20056;-76
2022/12/01 01:08:39;;;;;;;22.55;7.43;;;2.90;99.90;;;;;;4746411;30;20051;-76
2022/12/01 01:11:07;;;;;;;20.50;8.07;;;2.80;99.90;;;;;;4734134;30;20107;-76
2022/12/01 01:13:36;;;;;;;21.05;8.13;;;1.50;99.90;;;;;;4732022;30;20148;-76
2022/12/01 01:16:10;;;;;;;19.73;7.00;;;2.80;99.90;;;;;;4730987;30;20581;-76
2022/12/01 01:18:37;;;;;;;23.15;8.45;;;2.70;99.90;;;;;;4733071;30;20539;-76
2022/12/01 01:21:08;;;;;;;18.73;6.80;;;2.60;99.90;;;;;;4726015;30;20563;-76
2022/12/01 01:23:36;;;;;;;20.88;6.93;;;3.50;99.90;;;;;;4744202;30;20065;-76
2022/12/01 01:26:07;;;;;;;21.15;7.57;;;2.30;99.90;;;;;;4727807;30;20048;-76
2022/12/01 01:28:34;;;;;;;19.83;7.70;;;2.60;99.90;;;;;;4730145;30;20060;-76
2022/12/01 01:31:09;;;;;;;20.50;7.78;;;2.20;99.90;;;;;;4725398;30;20060;-76
2022/12/01 01:33:37;;;;;;;22.10;7.03;;;2.50;99.90;;;;;;4734588;30;20055;-76
2022/12/01 01:36:05;;;;;;;21.33;7.40;;;2.60;99.90;;;;;;4748888;30;20122;-76
2022/12/01 01:38:33;;;;;;;16.75;6.80;;;2.50;99.90;;;;;;4729680;30;20040;-76
2022/12/01 01:41:02;;;;;;;27.38;9.23;;;3.10;99.90;;;;;;4729245;30;20056;-76
2022/12/01 01:43:51;;;;;;;25.20;9.45;;;2.50;99.90;;;;;;4732623;30;20500;-76
2022/12/01 01:46:26;;;;;;;21.33;8.30;;;2.40;99.90;;;;;;4744327;30;20044;-76
2022/12/01 01:49:08;;;;;;;22.95;8.30;;;2.40;99.90;;;;;;4718006;30;20055;-76
2022/12/01 01:51:54;;;;;;;26.25;9.07;;;2.40;99.90;;;;;;4749457;30;20048;-76
2022/12/01 01:54:25;;;;;;;22.15;8.90;;;2.60;99.90;;;;;;4750721;30;20067;-76
2022/12/01 01:56:56;;;;;;;24.98;8.65;;;2.30;99.90;;;;;;4734227;30;20525;-76
2022/12/01 01:59:30;;;;;;;18.35;7.15;;;2.20;99.90;;;;;;4724196;30;20048;-76
2022/12/01 02:02:09;;;;;;;22.98;7.28;;;2.20;99.90;;;;;;4734731;30;20055;-76
2022/12/01 02:04:44;;;;;;;19.80;7.65;;;2.20;99.90;;;;;;4733249;30;20051;-76
2022/12/01 02:07:16;;;;;;;17.88;7.35;;;2.20;99.90;;;;;;4732812;30;20052;-76
2022/12/01 02:09:44;;;;;;;17.25;6.72;;;1.60;99.90;;;;;;4732907;30;20056;-76
2022/12/01 02:12:18;;;;;;;20.08;7.03;;;2.20;99.90;;;;;;4736161;30;20558;-76
2022/12/01 02:14:58;;;;;;;19.75;7.53;;;2.20;99.90;;;;;;4732776;30;20413;-76
2022/12/01 02:17:40;;;;;;;18.80;6.72;;;1.90;99.90;;;;;;4731057;30;20523;-76
2022/12/01 02:20:26;;;;;;;19.58;6.75;;;2.10;99.90;;;;;;4745285;30;20491;-76
2022/12/01 02:23:35;;;;;;;20.05;7.32;;;2.90;99.90;;;;;;4747002;30;20060;-76
2022/12/01 02:26:30;;;;;;;21.42;8.10;;;2.20;99.90;;;;;;4733218;30;20508;-76
2022/12/01 02:29:35;;;;;;;18.17;7.65;;;0.60;99.90;;;;;;4721018;30;20460;-76
2022/12/01 02:32:23;;;;;;;20.48;7.78;;;2.20;99.90;;;;;;4735347;30;20521;-76
2022/12/01 02:35:02;;;;;;;23.42;8.82;;;1.80;99.90;;;;;;4743615;30;20044;-76
2022/12/01 02:37:40;;;;;;;26.05;9.57;;;1.90;99.90;;;;;;4735755;30;20105;-76
2022/12/01 02:40:26;;;;;;;27.55;9.48;;;2.10;99.90;;;;;;4747931;30;20052;-76
2022/12/01 02:42:58;;;;;;;20.98;8.43;;;2.10;99.90;;;;;;4746638;30;20442;-76
2022/12/01 02:45:29;;;;;;;25.23;9.47;;;3.40;99.90;;;;;;4732083;30;20098;-76
2022/12/01 02:48:01;;;;;;;28.00;9.23;;;2.00;99.90;;;;;;4732809;30;20117;-76
2022/12/01 02:50:33;;;;;;;22.20;8.13;;;1.80;99.90;;;;;;4752250;30;20048;-76
2022/12/01 02:53:03;;;;;;;20.38;8.35;;;3.10;99.90;;;;;;4729917;30;20053;-76
2022/12/01 02:55:30;;;;;;;26.80;9.02;;;1.80;99.90;;;;;;4749708;30;20578;-76
2022/12/01 02:57:58;;;;;;;24.60;8.55;;;2.20;99.90;;;;;;4732936;30;20048;-75
2022/12/01 03:00:25;;;;;;;23.15;7.57;;;3.50;99.90;;;;;;4732907;30;20123;-76
2022/12/01 03:03:23;;;;;;;26.45;9.68;;;2.30;99.90;;;;;;4732984;30;20056;-76
2022/12/01 03:06:01;;;;;;;25.83;9.57;;;1.80;99.90;;;;;;4734101;30;20040;-80
2022/12/01 03:08:46;;;;;;;27.38;10.00;;;2.90;99.90;;;;;;4747007;30;20102;-80
2022/12/01 03:11:30;;;;;;;27.83;8.85;;;2.70;99.90;;;;;;4744028;30;20048;-81
2022/12/01 03:14:31;;;;;;;26.65;7.90;;;1.80;99.90;;;;;;4752650;30;20044;-76
2022/12/01 03:17:04;;;;;;;21.02;7.97;;;1.70;99.90;;;;;;4747032;30;23474;-79
2022/12/01 03:19:41;;;;;;;21.35;9.25;;;2.60;99.90;;;;;;4748445;30;20048;-79
2022/12/01 03:22:14;;;;;;;24.75;8.77;;;1.80;99.90;;;;;;4742839;30;20110;-78
2022/12/01 03:24:44;;;;;;;;;;;1.70;99.90;;;;;;4746281;30;20110;-78
2022/12/01 03:27:14;;;;;;;29.13;9.00;;;1.60;99.90;;;;;;4727445;30;19934;-78
2022/12/01 03:29:46;;;;;;;24.20;8.07;;;1.70;99.90;;;;;;4733879;30;20410;-78
2022/12/01 03:32:36;;;;;;;18.63;6.75;;;2.70;99.90;;;;;;4749491;30;20056;-79
2022/12/01 03:35:11;;;;;;;22.70;9.23;;;1.70;99.90;;;;;;4745685;30;20135;-80
2022/12/01 03:37:52;;;;;;;23.70;7.55;;;1.20;99.90;;;;;;4748563;30;20535;-80
2022/12/01 03:40:26;;;;;;;23.60;8.60;;;1.70;99.90;;;;;;4733585;30;20135;-80
2022/12/01 03:43:00;;;;;;;24.88;8.30;;;3.00;99.90;;;;;;4750083;30;20146;-76
2022/12/01 03:45:53;;;;;;;24.45;8.40;;;1.40;99.90;;;;;;4731293;30;20109;-76
2022/12/01 03:48:23;;;;;;;28.23;8.25;;;1.60;99.90;;;;;;4709447;30;20129;-80
2022/12/01 03:51:14;;;;;;;25.67;9.10;;;1.50;99.90;;;;;;4732733;30;20048;-79
2022/12/01 03:53:59;;;;;;;20.85;7.32;;;1.50;99.90;;;;;;4745043;30;20056;-79
2022/12/01 03:56:32;;;;;;;23.48;8.32;;;1.40;99.90;;;;;;4720625;30;20136;-79
2022/12/01 03:59:02;;;;;;;26.83;9.68;;;1.70;99.90;;;;;;4744143;30;20605;-79
2022/12/01 04:01:32;;;;;;;23.48;9.10;;;1.50;99.90;;;;;;4720081;30;20048;-77
2022/12/01 04:04:08;;;;;;;25.60;8.20;;;1.50;99.90;;;;;;4734629;30;20108;-77
2022/12/01 04:06:36;;;;;;;26.85;9.00;;;1.80;99.90;;;;;;4731565;30;20062;-76
2022/12/01 04:09:03;;;;;;;24.77;8.23;;;1.40;99.90;;;;;;4749877;30;20060;-76
2022/12/01 04:14:21;;;;;;;26.67;8.90;;;1.50;99.90;;;;;;4729867;30;20047;-77
2022/12/01 04:16:50;;;;;;;26.92;8.85;;;1.40;99.90;;;;;;4731681;30;20175;-77
2022/12/01 04:19:17;;;;;;;28.45;8.98;;;1.90;99.90;;;;;;4735167;30;20052;-76
2022/12/01 04:21:45;;;;;;;30.95;10.07;;;2.60;99.90;;;;;;4744960;30;20044;-76
2022/12/01 04:24:12;;;;;;;27.83;10.43;;;2.30;99.90;;;;;;4743480;30;20084;-78
2022/12/01 04:26:41;;;;;;;27.92;9.13;;;1.30;99.90;;;;;;4743006;30;20114;-77
2022/12/01 04:29:10;;;;;;;25.05;7.68;;;2.70;99.90;;;;;;4728360;30;20056;-77
2022/12/01 04:31:38;;;;;;;23.05;7.25;;;1.40;99.90;;;;;;4731293;30;20139;-77
2022/12/01 04:34:06;;;;;;;27.23;9.13;;;1.60;99.90;;;;;;4718315;30;20108;-76
2022/12/01 04:36:36;;;;;;;28.58;9.20;;;1.40;99.90;;;;;;4748404;30;20102;-76
2022/12/01 04:39:05;;;;;;;24.63;8.77;;;1.10;99.90;;;;;;4726912;30;20599;-76
2022/12/01 04:41:36;;;;;;;25.90;9.07;;;1.20;99.90;;;;;;4730098;30;20469;-77
2022/12/01 04:44:03;;;;;;;24.27;9.35;;;2.70;99.90;;;;;;4746880;30;20056;-77
2022/12/01 04:46:30;;;;;;;25.48;8.30;;;1.10;99.90;;;;;;4732562;30;20048;-77
2022/12/01 04:48:58;;;;;;;23.35;8.40;;;1.50;99.90;;;;;;4746415;30;20107;-77
2022/12/01 04:51:25;;;;;;;24.92;8.55;;;1.10;99.90;;;;;;4746126;30;20048;-77
2022/12/01 04:53:53;;;;;;;23.80;8.77;;;2.00;99.90;;;;;;4745941;30;20057;-78
2022/12/01 04:56:20;;;;;;;20.90;7.20;;;1.90;99.90;;;;;;4748299;30;20052;-78
2022/12/01 04:58:48;;;;;;;26.13;7.22;;;2.60;99.90;;;;;;4746858;30;20593;-77
2022/12/01 05:01:17;;;;;;;20.48;7.65;;;2.30;99.90;;;;;;4743101;30;20049;-77
2022/12/01 05:03:50;;;;;;;24.70;7.07;;;1.00;99.90;;;;;;4730248;30;20473;-77
2022/12/01 05:06:24;;;;;;;21.90;7.35;;;2.10;99.90;;;;;;4743613;30;20117;-76
2022/12/01 05:08:55;;;;;;;19.77;7.28;;;2.60;99.90;;;;;;4726481;30;20065;-78
2022/12/01 05:11:24;;;;;;;21.85;6.97;;;1.40;99.90;;;;;;4726737;30;20061;-77
2022/12/01 05:13:51;;;;;;;19.30;7.63;;;1.10;99.90;;;;;;4715909;30;20048;-78
2022/12/01 05:16:20;;;;;;;19.55;7.70;;;2.00;99.90;;;;;;4749118;30;20055;-77
2022/12/01 05:20:55;;;;;;;23.75;8.48;;;2.90;99.90;;;;;;4746641;30;20175;-77
2022/12/01 05:21:47;;;;;;;29.10;9.50;;;0.90;99.90;;;;;;4743529;30;20072;-77
2022/12/01 05:24:16;;;;;;;30.35;10.50;;;1.10;99.90;;;;;;4729286;30;20068;-77
2022/12/01 05:26:44;;;;;;;23.50;9.55;;;1.10;99.90;;;;;;4745513;30;20698;-77
2022/12/01 05:29:12;;;;;;;26.83;9.57;;;2.20;99.90;;;;;;4736079;30;21088;-77
2022/12/01 05:31:39;;;;;;;26.77;9.82;;;1.00;99.90;;;;;;4734402;30;20171;-77
2022/12/01 05:34:07;;;;;;;33.20;10.95;;;1.80;99.90;;;;;;4749687;30;20081;-77
2022/12/01 05:36:35;;;;;;;30.02;10.40;;;1.90;99.90;;;;;;4735608;30;20052;-77
2022/12/01 05:39:04;;;;;;;24.23;9.05;;;2.20;99.90;;;;;;4735047;30;20136;-77
2022/12/01 05:41:31;;;;;;;27.98;10.38;;;0.90;99.90;;;;;;4747736;30;20527;-77
2022/12/01 05:43:59;;;;;;;27.38;10.02;;;2.00;99.90;;;;;;4734238;30;20048;-77
2022/12/01 05:46:27;;;;;;;23.90;8.80;;;2.10;99.90;;;;;;4751586;30;20051;-77
2022/12/01 05:48:54;;;;;;;30.85;10.48;;;1.90;99.90;;;;;;4732941;30;20127;-76
2022/12/01 05:51:22;;;;;;;27.23;11.75;;;1.90;99.90;;;;;;4734582;30;20085;-77
2022/12/01 05:53:50;;;;;;;34.50;12.48;;;1.50;99.90;;;;;;4734719;30;20075;-77
2022/12/01 05:56:17;;;;;;;32.40;12.60;;;1.00;99.90;;;;;;4752575;30;20076;-78
2022/12/01 05:58:46;;;;;;;37.35;12.65;;;1.10;99.90;;;;;;4733573;30;20048;-78
2022/12/01 06:01:14;;;;;;;36.22;13.27;;;1.00;99.90;;;;;;4734907;30;20055;-78
2022/12/01 06:03:42;;;;;;;34.47;12.10;;;2.80;99.90;;;;;;4719619;30;20130;-77
2022/12/01 06:06:09;;;;;;;35.08;12.65;;;0.90;99.90;;;;;;4748955;30;20072;-78
2022/12/01 06:08:40;;;;;;;28.33;10.80;;;2.60;99.90;;;;;;4748123;30;20086;-78
2022/12/01 06:11:07;;;;;;;29.35;11.60;;;1.40;99.90;;;;;;4719547;30;20064;-77
2022/12/01 06:13:35;;;;;;;36.42;13.07;;;0.60;99.90;;;;;;4750992;30;20098;-78
2022/12/01 06:16:05;;;;;;;36.53;15.57;;;0.80;99.90;;;;;;4739080;30;20117;-77
2022/12/01 06:18:36;;;;;;;44.42;16.65;;;0.70;99.90;;;;;;4724659;30;20403;-77
2022/12/01 06:21:05;;;;;;;42.03;16.85;;;0.60;99.90;;;;;;4735228;30;20080;-76
2022/12/01 06:23:33;;;;;;;43.92;15.50;;;0.80;99.90;;;;;;4747305;30;20045;-76
2022/12/01 06:26:02;;;;;;;52.55;19.20;;;0.50;99.90;;;;;;4749489;30;20055;-77
2022/12/01 06:28:30;;;;;;;60.13;21.23;;;1.00;99.90;;;;;;4737515;30;20048;-77
2022/12/01 06:30:57;;;;;;;59.30;19.95;;;0.60;99.90;;;;;;4723040;30;20060;-77
2022/12/01 06:33:30;;;;;;;57.35;20.77;;;1.10;99.90;;;;;;4733262;30;20128;-76
2022/12/01 06:36:03;;;;;;;52.10;19.48;;;1.80;99.90;;;;;;4732074;30;20159;-77
2022/12/01 06:38:37;;;;;;;52.35;20.25;;;0.70;99.90;;;;;;4730961;30;20052;-77
2022/12/01 06:41:04;;;;;;;49.03;18.88;;;2.00;99.90;;;;;;4728963;30;20420;-77
2022/12/01 06:43:34;;;;;;;47.78;16.98;;;0.80;99.90;;;;;;4730033;30;20044;-77
2022/12/01 06:46:03;;;;;;;53.80;18.83;;;0.60;99.90;;;;;;4725070;30;20143;-77
2022/12/01 06:48:37;;;;;;;48.67;18.17;;;0.70;99.90;;;;;;4733119;30;21854;-77
2022/12/01 06:51:05;;;;;;;53.35;18.55;;;0.90;99.90;;;;;;4747947;30;20155;-77
2022/12/01 06:53:32;;;;;;;48.97;17.08;;;1.90;99.90;;;;;;4729246;30;20144;-77
2022/12/01 06:56:01;;;;;;;46.25;17.20;;;2.40;99.90;;;;;;4731090;30;20056;-77
2022/12/01 06:58:29;;;;;;;45.00;16.42;;;1.70;99.90;;;;;;4728607;30;20074;-77
2022/12/01 07:00:57;;;;;;;48.15;17.65;;;0.70;99.90;;;;;;4740915;30;20114;-77
2022/12/01 07:03:25;;;;;;;45.13;17.42;;;2.30;99.90;;;;;;4729062;30;20601;-77
2022/12/01 07:05:58;;;;;;;51.53;18.17;;;2.10;99.90;;;;;;4745573;30;20894;-77
2022/12/01 07:08:33;;;;;;;;;;;0.40;99.90;;;;;;4749219;30;20809;-77
2022/12/01 07:11:08;;;;;;;65.78;20.98;;;0.50;99.90;;;;;;4746558;30;19926;-80
2022/12/01 07:13:36;;;;;;;75.80;25.77;;;0.00;99.90;;;;;;4739442;30;20052;-80
2022/12/01 07:16:07;;;;;;;71.70;24.88;;;1.50;99.90;;;;;;4734911;30;21050;-80
2022/12/01 07:18:35;;;;;;;73.57;26.58;;;0.90;99.90;;;;;;4765570;30;20051;-80
2022/12/01 07:21:10;;;;;;;75.55;26.98;;;2.40;99.90;;;;;;4749918;30;20067;-80
2022/12/01 07:23:37;;;;;;;73.38;25.42;;;1.00;99.90;;;;;;4741674;30;20078;-80
2022/12/01 07:26:10;;;;;;;76.15;26.65;;;1.50;99.90;;;;;;4738248;30;20070;-80
2022/12/01 07:28:37;;;;;;;79.57;27.48;;;2.00;99.90;;;;;;4741278;30;20051;-80
2022/12/01 07:31:18;;;;;;;88.28;32.10;;;0.90;99.90;;;;;;4745628;30;20068;-80
2022/12/01 07:33:45;;;;;;;87.68;32.40;;;1.20;99.90;;;;;;4749868;30;20149;-80
2022/12/01 07:36:13;;;;;;;100.28;38.42;;;2.80;99.90;;;;;;4752791;30;20044;-80
2022/12/01 07:38:40;;;;;;;102.13;40.85;;;2.90;99.90;;;;;;4735644;30;20047;-80
2022/12/01 07:41:11;;;;;;;93.07;40.33;;;1.30;99.90;;;;;;4734286;30;20059;-80
2022/12/01 07:43:39;;;;;;;103.75;38.55;;;1.90;99.90;;;;;;4740853;30;20078;-80
2022/12/01 07:46:09;;;;;;;99.10;38.83;;;1.40;99.90;;;;;;4745705;30;20092;-80
2022/12/01 07:48:38;;;;;;;87.60;37.13;;;1.30;99.90;;;;;;4745712;30;20056;-80
2022/12/01 07:51:07;;;;;;;88.07;35.78;;;1.50;99.90;;;;;;4753263;30;20060;-80
2022/12/01 07:53:36;;;;;;;80.80;35.63;;;1.10;99.90;;;;;;4752486;30;20118;-80
2022/12/01 07:56:12;;;;;;;107.90;42.22;;;1.60;99.90;;;;;;4744193;30;20051;-80
2022/12/01 07:58:43;;;;;;;87.93;36.67;;;1.50;99.90;;;;;;4738276;30;20052;-80
2022/12/01 08:01:13;;;;;;;86.18;35.85;;;1.70;99.90;;;;;;4751525;30;20068;-80
2022/12/01 08:03:41;;;;;;;63.10;24.65;;;1.50;99.90;;;;;;4752679;30;20048;-80
2022/12/01 08:06:10;;;;;;;61.20;24.15;;;2.90;99.90;;;;;;4750156;30;20036;-80
2022/12/01 08:08:39;;;;;;;65.30;28.00;;;2.00;99.90;;;;;;4757006;30;20055;-80
2022/12/01 08:11:12;;;;;;;64.38;30.48;;;1.70;99.90;;;;;;4745608;30;20143;-80
2022/12/01 08:13:41;;;;;;;72.35;30.52;;;1.70;99.90;;;;;;4749451;30;20524;-80
2022/12/01 08:16:10;;;;;;;67.75;28.13;;;1.80;99.90;;;;;;4760567;30;20052;-80
2022/12/01 08:18:39;;;;;;;69.43;27.77;;;1.90;99.90;;;;;;4738129;30;20220;-80
2022/12/01 08:21:08;;;;;;;76.47;31.25;;;2.40;99.90;;;;;;4753697;30;20398;-80
2022/12/01 08:23:36;;;;;;;64.78;26.45;;;1.80;99.90;;;;;;4747444;30;20496;-80
2022/12/01 08:26:11;;;;;;;59.00;23.33;;;3.60;99.90;;;;;;4744584;30;20055;-80
2022/12/01 08:28:39;;;;;;;57.63;22.45;;;3.40;99.90;;;;;;4742219;30;20079;-80
2022/12/01 08:31:15;;;;;;;49.80;21.90;;;2.00;99.90;;;;;;4761330;30;20052;-80
2022/12/01 08:33:47;;;;;;;45.90;21.20;;;2.00;99.90;;;;;;4745598;30;20052;-80
2022/12/01 08:36:14;;;;;;;51.22;21.90;;;2.90;99.90;;;;;;4757893;30;20155;-80
2022/12/01 08:38:43;;;;;;;44.33;19.40;;;2.10;99.90;;;;;;4767592;30;20051;-80
2022/12/01 08:41:15;;;;;;;47.88;17.92;;;2.10;99.90;;;;;;4773226;30;20028;-80
2022/12/01 08:43:44;;;;;;;57.00;23.88;;;2.30;99.90;;;;;;4758806;30;20031;-80
2022/12/01 08:46:32;;;;;;;43.97;18.17;;;2.40;99.90;;;;;;4785784;29;20054;-80
2022/12/01 12:27:29;;;;;;;19.50;7.13;;;6.20;93.10;;;;;;5710090;24;20026;31
2022/12/01 12:37:51;;;;;;;15.95;6.63;;;6.20;93.00;;;;;;5255153;24;20077;-77
2022/12/01 15:29:08;;;;;;;35.88;15.40;;;4.30;99.90;;;;;;5802840;24;20030;31
2022/12/01 15:31:39;;;;;;;35.13;15.60;;;4.20;99.90;;;;;;4786150;29;20063;-77
2022/12/01 15:34:17;;;;;;;31.92;15.00;;;4.20;99.90;;;;;;4784582;29;20077;-77
2022/12/01 15:36:46;;;;;;;35.42;16.05;;;4.10;99.90;;;;;;4766926;29;20055;-77
2022/12/01 15:39:16;;;;;;;37.97;17.25;;;4.20;99.90;;;;;;4757602;30;20075;-77
2022/12/01 15:41:47;;;;;;;36.47;18.38;;;4.00;99.90;;;;;;4755327;30;20051;-77
2022/12/01 15:44:30;;;;;;;43.92;20.10;;;4.00;99.90;;;;;;4754146;30;20534;-77
2022/12/01 15:46:57;;;;;;;;;;;4.00;99.90;;;;;;4768191;30;20066;-77
2022/12/01 15:49:31;;;;;;;48.22;19.63;;;3.90;99.90;;;;;;4752049;30;20417;-77
2022/12/01 15:52:09;;;;;;;49.85;23.15;;;4.00;99.90;;;;;;4768704;30;20043;-77
2022/12/01 15:54:37;;;;;;;53.65;23.67;;;4.00;99.90;;;;;;4760336;29;20051;-77
2022/12/01 15:57:05;;;;;;;64.60;26.65;;;3.90;99.90;;;;;;4780912;29;20588;-77
2022/12/01 15:59:40;;;;;;;54.30;24.55;;;3.70;99.90;;;;;;4766479;30;20108;-77
2022/12/01 16:02:22;;;;;;;62.78;25.67;;;2.90;99.90;;;;;;4764655;29;20059;-77
2022/12/01 16:05:07;;;;;;;59.22;26.17;;;2.80;99.90;;;;;;4769183;29;20043;-77
2022/12/01 16:07:37;;;;;;;78.05;29.05;;;3.80;99.90;;;;;;4750430;30;20803;-77
2022/12/01 16:10:26;;;;;;;71.32;28.05;;;3.50;99.90;;;;;;4784519;29;20047;-77
2022/12/01 16:13:32;;;;;;;66.25;27.58;;;3.70;99.90;;;;;;4765689;30;20059;-77
2022/12/01 16:16:00;;;;;;;76.13;28.85;;;3.40;99.90;;;;;;4786121;29;20061;-77
2022/12/01 16:18:31;;;;;;;87.65;31.83;;;3.50;99.90;;;;;;4762362;29;20555;-77
2022/12/01 16:21:04;;;;;;;83.20;33.58;;;3.60;99.90;;;;;;4763423;29;20047;-77
2022/12/01 16:23:33;;;;;;;102.78;37.65;;;3.30;99.90;;;;;;4769076;29;20082;-77
2022/12/01 16:26:07;;;;;;;98.25;36.38;;;3.80;99.90;;;;;;4763732;30;20105;-77
2022/12/01 16:28:35;;;;;;;249.82;78.50;;;2.70;99.90;;;;;;4746483;29;20133;-77
2022/12/01 16:31:04;;;;;;;298.48;92.97;;;3.50;99.90;;;;;;4762004;30;20067;-77
2022/12/01 16:33:37;;;;;;;781.53;291.23;;;3.60;99.90;;;;;;4747077;30;20055;-77
2022/12/01 16:36:05;;;;;;;652.38;235.60;;;4.50;99.90;;;;;;4752866;30;20145;-77
2022/12/01 16:38:33;;;;;;;713.63;279.08;;;3.50;99.90;;;;;;4781315;29;20052;-77
2022/12/01 16:41:16;;;;;;;589.47;217.00;;;4.50;99.90;;;;;;4778975;29;20051;-77
2022/12/01 16:43:46;;;;;;;517.85;184.27;;;3.40;99.90;;;;;;4765632;30;20047;-77
2022/12/01 16:46:33;;;;;;;495.20;169.63;;;3.60;99.90;;;;;;4769614;29;20437;-77
2022/12/01 16:49:01;;;;;;;419.23;132.77;;;3.30;99.90;;;;;;4753682;30;20055;-77
2022/12/01 16:51:29;;;;;;;365.35;119.18;;;3.30;99.90;;;;;;4757582;30;20522;-77
2022/12/01 16:54:17;;;;;;;326.55;105.85;;;3.20;99.90;;;;;;4750510;30;20051;-77
2022/12/01 16:56:44;;;;;;;279.55;92.85;;;3.20;99.90;;;;;;4748588;29;20535;-77
2022/12/01 16:59:12;;;;;;;271.25;92.78;;;3.10;99.90;;;;;;4761635;30;20519;-77
2022/12/01 17:01:39;;;;;;;246.43;88.18;;;3.90;99.90;;;;;;4761333;30;20095;-77
2022/12/01 17:04:08;;;;;;;239.18;83.90;;;3.60;99.90;;;;;;4749254;30;20055;-77
2022/12/01 17:06:37;;;;;;;221.48;78.80;;;3.10;99.90;;;;;;4780048;29;20039;-77
2022/12/01 17:09:05;;;;;;;215.88;77.22;;;3.10;99.90;;;;;;4776065;29;20048;-77
2022/12/01 17:11:33;;;;;;;209.65;76.07;;;3.10;99.90;;;;;;4768168;30;20108;-77
2022/12/01 17:14:01;;;;;;;184.18;69.88;;;2.20;99.90;;;;;;4752148;30;20793;-77
2022/12/01 17:16:28;;;;;;;182.65;67.40;;;3.00;99.90;;;;;;4767772;29;20077;-77
2022/12/01 17:18:56;;;;;;;177.50;67.20;;;3.60;99.90;;;;;;4778623;29;20055;-77
2022/12/01 17:21:24;;;;;;;170.40;65.43;;;2.90;99.90;;;;;;4767924;30;20074;-77
2022/12/01 17:23:53;;;;;;;182.10;66.10;;;4.60;99.90;;;;;;4759473;29;20055;-77
2022/12/01 17:26:22;;;;;;;175.43;68.13;;;2.90;99.90;;;;;;4760422;30;20046;-77
2022/12/01 17:28:49;;;;;;;161.73;62.97;;;2.90;99.90;;;;;;4770221;30;20504;-77
2022/12/01 17:31:17;;;;;;;183.82;67.38;;;2.90;99.90;;;;;;4763517;30;20055;-77
2022/12/01 17:33:45;;;;;;;182.70;68.10;;;2.90;99.90;;;;;;4752286;30;20424;-77
2022/12/01 17:36:14;;;;;;;198.13;75.28;;;3.90;99.90;;;;;;4767419;30;20043;-77
2022/12/01 17:38:44;;;;;;;186.10;72.35;;;2.60;99.90;;;;;;4783853;29;20106;-77
2022/12/01 17:41:20;;;;;;;188.23;69.00;;;2.80;99.90;;;;;;4765137;29;20056;-77
2022/12/01 17:43:48;;;;;;;176.93;66.40;;;1.60;99.90;;;;;;4763425;30;20047;-77
2022/12/01 17:46:15;;;;;;;186.40;66.50;;;2.70;99.90;;;;;;4771392;30;20427;-77
2022/12/01 17:48:45;;;;;;;180.00;66.45;;;3.70;99.90;;;;;;4769530;30;20055;-77
2022/12/01 17:51:14;;;;;;;186.18;67.05;;;3.20;99.90;;;;;;4764893;30;20063;-77
2022/12/01 17:53:41;;;;;;;181.90;66.95;;;4.60;99.90;;;;;;4769872;29;20059;-77
2022/12/01 17:56:12;;;;;;;191.02;66.70;;;2.50;99.90;;;;;;4768004;30;20543;-77
2022/12/01 17:58:43;;;;;;;183.57;64.35;;;4.10;99.90;;;;;;4752708;30;20051;-77
2022/12/01 18:01:16;;;;;;;178.75;63.92;;;2.40;99.90;;;;;;4762496;29;20047;-77
2022/12/01 18:03:45;;;;;;;172.57;61.92;;;4.50;99.90;;;;;;4770882;29;20505;-77
2022/12/01 18:06:14;;;;;;;174.32;65.35;;;2.60;99.90;;;;;;4756467;29;20051;-77
2022/12/01 18:08:42;;;;;;;168.30;61.90;;;2.50;99.90;;;;;;4749908;30;20077;-77
2022/12/01 18:11:14;;;;;;;180.40;65.82;;;2.40;99.90;;;;;;4748505;30;20047;-77
2022/12/01 18:13:46;;;;;;;185.60;64.80;;;2.90;99.90;;;;;;4767650;30;20082;-77
2022/12/01 18:16:26;;;;;;;170.23;65.97;;;4.00;99.90;;;;;;4764070;29;20415;-77
2022/12/01 18:18:57;;;;;;;183.82;70.07;;;2.50;99.90;;;;;;4777827;29;20068;-77
2022/12/01 18:21:27;;;;;;;181.30;66.53;;;2.50;99.90;;;;;;4766561;30;20043;-77
2022/12/01 18:23:59;;;;;;;196.75;71.97;;;2.70;99.90;;;;;;4755272;30;20138;-77
2022/12/01 18:26:28;;;;;;;211.27;73.90;;;2.60;99.90;;;;;;4767970;30;20105;-77
2022/12/01 18:29:07;;;;;;;206.57;76.47;;;1.70;99.90;;;;;;4750942;30;20108;-77
2022/12/01 18:31:36;;;;;;;206.02;75.85;;;2.20;99.90;;;;;;4750424;30;20087;-77
2022/12/01 18:34:06;;;;;;;224.38;82.35;;;2.40;99.90;;;;;;4747776;30;20043;-77
2022/12/01 18:36:36;;;;;;;230.68;83.88;;;2.50;99.90;;;;;;4762219;30;20718;-77
2022/12/01 18:39:06;;;;;;;232.05;82.03;;;3.40;99.90;;;;;;4747383;29;20515;-76
2022/12/01 18:41:35;;;;;;;254.20;88.40;;;2.40;99.90;;;;;;4759494;30;20051;-77
2022/12/01 18:44:03;;;;;;;270.75;95.70;;;3.40;99.90;;;;;;4765463;30;20043;-77
2022/12/01 18:46:31;;;;;;;266.40;94.95;;;2.30;99.90;;;;;;4753953;30;20051;-76
2022/12/01 18:49:01;;;;;;;273.40;97.97;;;2.00;99.90;;;;;;4765481;30;20051;-77
2022/12/01 18:51:31;;;;;;;299.45;104.50;;;3.10;99.90;;;;;;4748589;30;20098;-77
2022/12/01 18:54:01;;;;;;;309.55;109.55;;;3.90;99.90;;;;;;4751967;30;20431;-77
2022/12/01 18:56:34;;;;;;;287.08;102.97;;;2.30;99.90;;;;;;4752144;30;20599;-77
2022/12/01 18:59:06;;;;;;;291.85;109.13;;;3.00;99.90;;;;;;4763681;30;20074;-77
2022/12/01 19:01:36;;;;;;;299.77;110.28;;;2.20;99.90;;;;;;4762800;30;20075;-77
2022/12/01 19:04:06;;;;;;;300.73;105.90;;;2.30;99.90;;;;;;4782208;29;20048;-77
2022/12/01 19:06:38;;;;;;;300.60;109.68;;;2.30;99.90;;;;;;4766965;30;20040;-77
2022/12/01 19:09:11;;;;;;;302.45;110.25;;;3.60;99.90;;;;;;4761461;30;20588;-77
2022/12/01 19:11:40;;;;;;;312.38;116.07;;;2.20;99.90;;;;;;4763354;30;20063;-77
2022/12/01 19:14:15;;;;;;;312.63;113.13;;;2.10;99.90;;;;;;4775560;30;20051;-77
2022/12/01 19:16:44;;;;;;;322.98;113.80;;;2.70;99.90;;;;;;4749253;30;20124;-77
2022/12/01 19:19:12;;;;;;;318.92;118.03;;;2.10;99.90;;;;;;4753959;29;20047;-77
2022/12/01 19:21:41;;;;;;;323.00;114.60;;;2.10;99.90;;;;;;4769199;30;20035;-76
2022/12/01 19:24:09;;;;;;;304.25;112.72;;;2.20;99.90;;;;;;4765675;30;20522;-77
2022/12/01 19:26:37;;;;;;;324.90;118.82;;;2.20;99.90;;;;;;4763670;30;20047;-77
2022/12/01 19:29:07;;;;;;;333.73;121.68;;;2.30;99.90;;;;;;4766105;30;20071;-77
2022/12/01 19:31:35;;;;;;;327.73;117.28;;;2.20;99.90;;;;;;4768237;30;20059;-77
2022/12/01 19:34:03;;;;;;;295.67;114.10;;;3.80;99.90;;;;;;4763627;30;20055;-77
2022/12/01 19:36:31;;;;;;;309.08;116.45;;;2.20;99.90;;;;;;4765038;30;20564;-76
2022/12/01 19:39:02;;;;;;;299.17;114.75;;;2.60;99.90;;;;;;4763461;29;20048;-76
2022/12/01 19:41:36;;;;;;;328.30;121.38;;;2.20;99.90;;;;;;4764526;30;20318;-77